createdAt,value
2022-11-19T18:02:26.553Z,23.13
2022-11-19T18:04:53.712Z,31.52
2022-11-19T18:07:20.825Z,22.95
2022-11-19T18:09:47.967Z,21.55
2022-11-19T18:12:18.394Z,16.27
2022-11-19T18:14:45.851Z,18.98
2022-11-19T18:17:14.823Z,12.35
2022-11-19T18:19:42.277Z,5.90
2022-11-19T18:22:18.401Z,6.93
2022-11-19T18:24:48.530Z,5.78
2022-11-19T18:27:16.392Z,6.13
2022-11-19T18:29:43.592Z,6.28
2022-11-19T18:32:17.200Z,7.10
2022-11-19T18:34:45.518Z,8.07
2022-11-19T18:37:13.135Z,10.60
2022-11-19T18:39:40.480Z,9.95
2022-11-19T18:42:10.908Z,7.63
2022-11-19T18:44:39.031Z,8.98
2022-11-19T18:47:13.195Z,8.13
2022-11-19T18:49:40.578Z,9.13
2022-11-19T18:52:11.948Z,5.82
2022-11-19T18:54:38.943Z,6.75
2022-11-19T18:57:05.941Z,8.65
2022-11-19T18:59:33.065Z,41.08
2022-11-19T19:02:00.252Z,36.13
2022-11-19T19:04:27.345Z,14.77
2022-11-19T19:06:54.839Z,8.38
2022-11-19T19:09:22.590Z,15.88
2022-11-19T19:12:13.596Z,14.38
2022-11-19T19:14:46.290Z,14.60
2022-11-19T19:17:15.337Z,11.63
2022-11-19T19:19:42.701Z,10.32
2022-11-19T19:22:09.710Z,10.40
2022-11-19T19:24:37.188Z,12.68
2022-11-19T19:27:04.595Z,17.38
2022-11-19T19:29:31.594Z,17.13
2022-11-19T19:31:58.842Z,14.70
2022-11-19T19:34:25.941Z,17.73
2022-11-19T19:36:53.765Z,18.00
2022-11-19T19:39:21.691Z,14.95
2022-11-19T19:41:49.510Z,15.27
2022-11-19T19:44:16.566Z,16.77
2022-11-19T19:46:43.566Z,15.00
2022-11-19T19:49:10.633Z,27.05
2022-11-19T19:51:37.624Z,25.60
2022-11-19T19:54:04.924Z,29.85
2022-11-19T19:56:33.416Z,33.47
2022-11-19T19:59:01.700Z,26.67
2022-11-19T20:01:31.502Z,20.13
2022-11-19T20:04:10.215Z,22.52
2022-11-19T20:06:41.736Z,21.92
2022-11-19T20:09:09.777Z,20.80
2022-11-19T20:11:37.956Z,27.35
2022-11-19T20:14:05.727Z,22.63
2022-11-19T20:16:34.098Z,25.60
2022-11-19T20:19:01.913Z,22.20
2022-11-19T20:21:34.205Z,23.63
2022-11-19T20:24:02.470Z,20.45
2022-11-19T20:26:32.023Z,22.88
2022-11-19T20:29:04.744Z,21.65
2022-11-19T20:31:32.712Z,24.70
2022-11-19T20:34:03.824Z,21.15
2022-11-19T20:36:34.618Z,20.58
2022-11-19T20:39:01.847Z,18.38
2022-11-19T20:41:47.788Z,18.05
2022-11-19T20:46:50.167Z,19.38
2022-11-19T20:49:18.676Z,17.73
2022-11-19T20:51:46.768Z,16.05
2022-11-19T20:54:14.022Z,14.65
2022-11-19T20:56:41.980Z,15.50
2022-11-19T20:59:09.598Z,16.33
2022-11-19T21:01:36.688Z,17.98
2022-11-19T21:04:04.411Z,17.45
2022-11-19T21:06:31.912Z,17.23
2022-11-19T21:08:59.118Z,15.35
2022-11-19T21:11:26.578Z,17.00
2022-11-19T21:13:53.553Z,18.13
2022-11-19T21:16:23.725Z,22.42
2022-11-19T21:18:51.503Z,23.73
2022-11-19T21:21:20.647Z,15.98
2022-11-19T21:23:48.156Z,49.97
2022-11-19T21:26:20.781Z,23.83
2022-11-19T21:28:53.688Z,17.83
2022-11-19T21:31:48.821Z,19.63
2022-11-19T21:34:22.780Z,12.10
2022-11-19T21:36:50.594Z,15.65
2022-11-19T21:39:18.757Z,15.68
2022-11-19T21:41:46.175Z,13.15
2022-11-19T21:44:19.641Z,12.70
2022-11-19T21:46:48.522Z,15.68
2022-11-19T21:49:15.509Z,13.95
2022-11-19T21:51:43.473Z,12.65
2022-11-19T21:54:10.570Z,11.38
2022-11-19T21:56:38.956Z,11.05
2022-11-19T21:59:07.461Z,14.93
2022-11-19T22:01:34.633Z,17.05
2022-11-19T22:04:06.034Z,10.35
2022-11-19T22:06:33.026Z,9.82
2022-11-19T22:09:00.277Z,11.13
2022-11-19T22:11:30.652Z,12.20
2022-11-19T22:14:03.278Z,11.18
2022-11-19T22:16:33.807Z,9.50
2022-11-19T22:19:01.470Z,9.27
2022-11-19T22:21:31.584Z,11.20
2022-11-19T22:23:58.739Z,11.48
2022-11-19T22:26:29.222Z,12.68
2022-11-19T22:28:56.513Z,11.68
2022-11-19T22:31:25.049Z,11.63
2022-11-19T22:33:53.973Z,14.13
2022-11-19T22:36:22.261Z,20.60
2022-11-19T22:38:50.076Z,13.55
2022-11-19T22:41:37.760Z,16.13
2022-11-19T22:44:05.572Z,10.57
2022-11-19T22:46:32.824Z,12.88
2022-11-19T22:48:59.870Z,13.00
2022-11-19T22:51:27.328Z,11.07
2022-11-19T22:53:55.089Z,17.10
2022-11-19T22:56:27.720Z,12.50
2022-11-19T22:58:55.533Z,11.13
2022-11-19T23:01:28.059Z,13.05
2022-11-19T23:03:56.691Z,14.75
2022-11-19T23:06:24.252Z,15.00
2022-11-19T23:08:54.122Z,9.85
2022-11-19T23:11:42.464Z,11.38
2022-11-19T23:14:12.372Z,11.60
2022-11-19T23:16:40.734Z,12.52
2022-11-19T23:19:08.923Z,11.15
2022-11-19T23:21:36.159Z,12.07
2022-11-19T23:24:03.861Z,12.20
2022-11-19T23:26:32.215Z,13.75
2022-11-19T23:28:59.465Z,11.70
2022-11-19T23:31:27.693Z,8.82
2022-11-19T23:33:59.055Z,10.05
2022-11-19T23:36:28.853Z,12.90
2022-11-19T23:38:56.321Z,12.27
2022-11-19T23:41:23.782Z,13.45
2022-11-19T23:43:53.759Z,10.35
2022-11-19T23:46:22.106Z,12.77
2022-11-19T23:48:50.277Z,11.93
2022-11-19T23:51:28.948Z,13.57
2022-11-19T23:53:56.865Z,14.55
2022-11-19T23:56:24.934Z,9.60
2022-11-19T23:58:52.241Z,10.13
